Terminal Aerodrome Forecast
Issued by NWS

Home | Current Version | Previous Version | Graphics & Text | Print | Product List | Glossary On
Versions: 1 2 3 4 5 6 7 8 9 10 11 12 13 14 15
963
FTUS43 KABR 191025 AAB
TAFPIR
TAF AMD
KPIR 191025Z 1910/2006 02015KT P6SM OVC015
     FM191400 02016G23KT P6SM OVC035
     FM200200 03009KT P6SM SKC=

USA.gov is the U.S. government's official web portal to all federal, state and local government web resources and services.